Time,TemperatureF,DewpointF,PressureIn,WindDirection,WindDirectionDegrees,WindSpeedMPH,WindSpeedGustMPH,Humidity,HourlyPrecipIn,Conditions,Clouds,dailyrainin,SoftwareType,DateUTC
2013-02-06 00:01:00,38.0,37.0,-100.00,South,183,1.0,1.0,95,-99.99,,,-99.99,,2013-02-06 08:01:00,
2013-02-06 00:11:00,38.0,37.0,-100.00,NE,43,1.0,2.0,96,-99.99,,,-99.99,,2013-02-06 08:11:00,
2013-02-06 00:21:00,38.0,37.0,-100.00,NE,52,2.0,4.0,96,-99.99,,,-99.99,,2013-02-06 08:21:00,
2013-02-06 00:31:00,39.0,37.0,-100.00,NNE,15,3.0,4.0,93,-99.99,,,-99.99,,2013-02-06 08:31:00,
2013-02-06 00:41:00,42.0,35.0,-100.00,NW,325,3.0,6.0,77,-99.99,,,-99.99,,2013-02-06 08:41:00,
2013-02-06 00:53:00,43.0,36.0,-100.00,North,355,3.0,6.0,75,-99.99,,,-99.99,,2013-02-06 08:53:00,
2013-02-06 01:01:00,42.0,36.0,-100.00,SW,229,1.0,5.0,78,-99.99,,,-99.99,,2013-02-06 09:01:00,
2013-02-06 01:11:00,41.0,33.0,-100.00,South,184,3.0,7.0,74,-99.99,,,-99.99,,2013-02-06 09:11:00,
2013-02-06 01:21:00,44.0,34.0,-100.00,SSW,212,4.0,8.0,69,-99.99,,,-99.99,,2013-02-06 09:21:00,
2013-02-06 01:31:00,43.0,37.0,-100.00,North,9,1.0,7.0,78,-99.99,,,-99.99,,2013-02-06 09:31:00,
2013-02-06 01:41:00,42.0,37.0,-100.00,ENE,61,1.0,4.0,81,-99.99,,,-99.99,,2013-02-06 09:41:00,
2013-02-06 01:51:00,43.0,37.0,-100.00,ESE,104,1.0,2.0,79,-99.99,,,-99.99,,2013-02-06 09:51:00,
2013-02-06 02:01:00,42.0,37.0,-100.00,East,90,1.0,4.0,81,-99.99,,,-99.99,,2013-02-06 10:01:00,
2013-02-06 02:11:00,42.0,37.0,-100.00,NNW,329,1.0,2.0,81,-99.99,,,-99.99,,2013-02-06 10:11:00,
2013-02-06 02:21:00,41.0,36.0,-100.00,South,185,1.0,2.0,83,-99.99,,,-99.99,,2013-02-06 10:21:00,
2013-02-06 02:31:00,41.0,36.0,-100.00,SW,214,1.0,1.0,82,-99.99,,,-99.99,,2013-02-06 10:31:00,
2013-02-06 02:41:00,40.0,36.0,-100.00,WSW,244,1.0,2.0,85,-99.99,,,-99.99,,2013-02-06 10:41:00,
2013-02-06 02:51:00,40.0,36.0,-100.00,SW,214,1.0,3.0,85,-99.99,,,-99.99,,2013-02-06 10:51:00,
2013-02-06 03:01:00,38.0,34.0,-100.00,SSW,196,2.0,4.0,86,-99.99,,,-99.99,,2013-02-06 11:01:00,
2013-02-06 03:11:00,39.0,35.0,-100.00,SW,225,1.0,3.0,87,-99.99,,,-99.99,,2013-02-06 11:11:00,
2013-02-06 03:22:00,38.0,34.0,-100.00,SSW,207,1.0,2.0,84,-99.99,,,-99.99,,2013-02-06 11:22:00,
2013-02-06 03:31:00,38.0,34.0,-100.00,WSW,258,1.0,2.0,86,-99.99,,,-99.99,,2013-02-06 11:31:00,
2013-02-06 03:42:00,39.0,35.0,-100.00,South,185,1.0,1.0,85,-99.99,,,-99.99,,2013-02-06 11:42:00,
2013-02-06 03:52:00,38.0,34.0,-100.00,WNW,288,1.0,2.0,87,-99.99,,,-99.99,,2013-02-06 11:52:00,
2013-02-06 04:01:00,39.0,36.0,-100.00,WSW,242,1.0,3.0,89,-99.99,,,-99.99,,2013-02-06 12:01:00,
2013-02-06 04:12:00,39.0,37.0,-100.00,NW,311,1.0,3.0,92,-99.99,,,-99.99,,2013-02-06 12:12:00,
2013-02-06 04:22:00,39.0,37.0,-100.00,North,353,1.0,6.0,93,-99.99,,,-99.99,,2013-02-06 12:22:00,
2013-02-06 04:32:00,40.0,39.0,-100.00,South,169,5.0,8.0,95,-99.99,,,-99.99,,2013-02-06 12:32:00,
2013-02-06 04:42:00,40.0,39.0,-100.00,South,169,3.0,6.0,95,-99.99,,,-99.99,,2013-02-06 12:42:00,
2013-02-06 04:52:00,40.0,39.0,-100.00,ESE,117,1.0,3.0,95,-99.99,,,-99.99,,2013-02-06 12:52:00,
2013-02-06 05:01:00,39.0,38.0,-100.00,NE,47,1.0,2.0,95,-99.99,,,-99.99,,2013-02-06 13:01:00,
2013-02-06 05:11:00,39.0,38.0,-100.00,North,6,2.0,4.0,96,-99.99,,,-99.99,,2013-02-06 13:11:00,
2013-02-06 05:21:00,39.0,38.0,-100.00,North,6,2.0,4.0,96,-99.99,,,-99.99,,2013-02-06 13:21:00,
2013-02-06 05:31:00,38.0,37.0,-100.00,NW,312,2.0,4.0,96,-99.99,,,-99.99,,2013-02-06 13:31:00,
2013-02-06 05:42:00,38.0,37.0,-100.00,NW,312,2.0,4.0,96,-99.99,,,-99.99,,2013-02-06 13:42:00,
2013-02-06 05:52:00,38.0,37.0,-100.00,NW,325,3.0,4.0,96,-99.99,,,-99.99,,2013-02-06 13:52:00,
2013-02-06 06:01:00,38.0,37.0,-100.00,NNW,328,2.0,4.0,97,-99.99,,,-99.99,,2013-02-06 14:01:00,
2013-02-06 06:11:00,38.0,37.0,-100.00,NNW,328,3.0,4.0,97,-99.99,,,-99.99,,2013-02-06 14:11:00,
2013-02-06 06:21:00,38.0,37.0,-100.00,NNW,339,2.0,4.0,97,-99.99,,,-99.99,,2013-02-06 14:21:00,
2013-02-06 06:31:00,38.0,37.0,-100.00,North,7,1.0,5.0,97,-99.99,,,-99.99,,2013-02-06 14:31:00,
2013-02-06 06:41:00,38.0,37.0,-100.00,North,7,1.0,5.0,97,-99.99,,,-99.99,,2013-02-06 14:41:00,
2013-02-06 06:52:00,37.0,36.0,-100.00,West,275,3.0,7.0,97,-99.99,,,-99.99,,2013-02-06 14:52:00,
2013-02-06 07:01:00,37.0,36.0,-100.00,WNW,297,3.0,5.0,97,-99.99,,,-99.99,,2013-02-06 15:01:00,
2013-02-06 07:11:00,37.0,36.0,-100.00,NNW,331,3.0,4.0,97,-99.99,,,-99.99,,2013-02-06 15:11:00,
2013-02-06 07:21:00,37.0,36.0,-100.00,NNW,331,2.0,4.0,97,-99.99,,,-99.99,,2013-02-06 15:21:00,
2013-02-06 07:31:00,37.0,36.0,-100.00,North,357,2.0,3.0,98,-99.99,,,-99.99,,2013-02-06 15:31:00,
2013-02-06 07:41:00,37.0,36.0,-100.00,North,357,2.0,3.0,98,-99.99,,,-99.99,,2013-02-06 15:41:00,
2013-02-06 07:51:00,36.0,35.0,-100.00,NE,39,1.0,3.0,98,-99.99,,,-99.99,,2013-02-06 15:51:00,
2013-02-06 08:01:00,36.0,35.0,-100.00,NNE,29,1.0,2.0,98,-99.99,,,-99.99,,2013-02-06 16:01:00,
2013-02-06 08:11:00,36.0,35.0,-100.00,NNE,27,2.0,4.0,98,-99.99,,,-99.99,,2013-02-06 16:11:00,
2013-02-06 08:21:00,36.0,35.0,-100.00,North,355,2.0,4.0,98,-99.99,,,-99.99,,2013-02-06 16:21:00,
2013-02-06 08:32:00,36.0,35.0,-100.00,North,6,1.0,3.0,98,-99.99,,,-99.99,,2013-02-06 16:32:00,
2013-02-06 08:41:00,37.0,36.0,-100.00,ENE,73,1.0,3.0,98,-99.99,,,-99.99,,2013-02-06 16:41:00,
2013-02-06 08:51:00,38.0,37.0,-100.00,ENE,62,2.0,5.0,98,-99.99,,,-99.99,,2013-02-06 16:51:00,
2013-02-06 09:01:00,38.0,37.0,-100.00,ENE,62,2.0,5.0,98,-99.99,,,-99.99,,2013-02-06 17:01:00,
2013-02-06 09:11:00,38.0,37.0,-100.00,ENE,71,2.0,4.0,98,-99.99,,,-99.99,,2013-02-06 17:11:00,
2013-02-06 09:21:00,39.0,38.0,-100.00,ENE,64,1.0,2.0,98,-99.99,,,-99.99,,2013-02-06 17:21:00,
2013-02-06 09:32:00,39.0,38.0,-100.00,West,266,2.0,4.0,98,-99.99,,,-99.99,,2013-02-06 17:32:00,
2013-02-06 09:41:00,40.0,39.0,-100.00,NNE,16,1.0,3.0,97,-99.99,,,-99.99,,2013-02-06 17:41:00,
2013-02-06 09:52:00,40.0,39.0,-100.00,ENE,66,2.0,4.0,97,-99.99,,,-99.99,,2013-02-06 17:52:00,
2013-02-06 10:01:00,41.0,40.0,-100.00,East,86,2.0,4.0,97,-99.99,,,-99.99,,2013-02-06 18:01:00,
2013-02-06 10:11:00,41.0,40.0,-100.00,WSW,256,2.0,5.0,97,-99.99,,,-99.99,,2013-02-06 18:11:00,
2013-02-06 10:22:00,42.0,41.0,-100.00,NNW,348,1.0,2.0,97,-99.99,,,-99.99,,2013-02-06 18:22:00,
2013-02-06 10:32:00,43.0,42.0,-100.00,WSW,246,2.0,5.0,96,-99.99,,,-99.99,,2013-02-06 18:32:00,
2013-02-06 10:41:00,44.0,42.0,-100.00,South,190,3.0,8.0,93,-99.99,,,-99.99,,2013-02-06 18:41:00,
2013-02-06 10:52:00,46.0,42.0,-100.00,SSW,192,3.0,8.0,87,-99.99,,,-99.99,,2013-02-06 18:52:00,
2013-02-06 11:01:00,46.0,41.0,-100.00,WSW,248,4.0,9.0,82,-99.99,,,-99.99,,2013-02-06 19:01:00,
2013-02-06 11:11:00,47.0,41.0,-100.00,South,191,6.0,12.0,78,-99.99,,,-99.99,,2013-02-06 19:11:00,
2013-02-06 11:21:00,46.0,39.0,-100.00,South,181,7.0,12.0,77,-99.99,,,-99.99,,2013-02-06 19:21:00,
2013-02-06 11:31:00,47.0,39.0,-100.00,South,174,6.0,11.0,75,-99.99,,,-99.99,,2013-02-06 19:31:00,
2013-02-06 11:41:00,49.0,41.0,-100.00,SSW,211,4.0,9.0,73,-99.99,,,-99.99,,2013-02-06 19:41:00,
2013-02-06 11:52:00,50.0,40.0,-100.00,SSE,148,4.0,9.0,69,-99.99,,,-99.99,,2013-02-06 19:52:00,
2013-02-06 12:01:00,52.0,41.0,-100.00,SSE,155,3.0,7.0,66,-99.99,,,-99.99,,2013-02-06 20:01:00,
2013-02-06 12:11:00,52.0,40.0,-100.00,South,184,6.0,11.0,64,-99.99,,,-99.99,,2013-02-06 20:11:00,
2013-02-06 12:21:00,52.0,40.0,-100.00,SSW,198,7.0,12.0,64,-99.99,,,-99.99,,2013-02-06 20:21:00,
2013-02-06 12:31:00,51.0,40.0,-100.00,South,185,9.0,14.0,65,-99.99,,,-99.99,,2013-02-06 20:31:00,
2013-02-06 12:41:00,52.0,41.0,-100.00,SW,216,7.0,11.0,65,-99.99,,,-99.99,,2013-02-06 20:41:00,
2013-02-06 12:52:00,53.0,41.0,-100.00,SSW,202,7.0,12.0,63,-99.99,,,-99.99,,2013-02-06 20:52:00,
2013-02-06 13:01:00,53.0,40.0,-100.00,SSW,197,5.0,13.0,61,-99.99,,,-99.99,,2013-02-06 21:01:00,
2013-02-06 13:11:00,53.0,39.0,-100.00,South,184,6.0,11.0,60,-99.99,,,-99.99,,2013-02-06 21:11:00,
2013-02-06 13:21:00,54.0,40.0,-100.00,SSW,199,6.0,13.0,59,-99.99,,,-99.99,,2013-02-06 21:21:00,
2013-02-06 13:31:00,54.0,40.0,-100.00,SSW,203,6.0,11.0,59,-99.99,,,-99.99,,2013-02-06 21:31:00,
2013-02-06 13:41:00,54.0,40.0,-100.00,SSW,213,5.0,11.0,58,-99.99,,,-99.99,,2013-02-06 21:41:00,
2013-02-06 13:51:00,54.0,40.0,-100.00,SW,219,6.0,13.0,58,-99.99,,,-99.99,,2013-02-06 21:51:00,
2013-02-06 14:01:00,54.0,40.0,-100.00,SW,236,6.0,11.0,59,-99.99,,,-99.99,,2013-02-06 22:01:00,
2013-02-06 14:11:00,54.0,40.0,-100.00,SSW,211,6.0,11.0,59,-99.99,,,-99.99,,2013-02-06 22:11:00,
2013-02-06 14:21:00,55.0,41.0,-100.00,SW,217,5.0,11.0,58,-99.99,,,-99.99,,2013-02-06 22:21:00,
2013-02-06 14:31:00,55.0,41.0,-100.00,SSW,196,6.0,10.0,58,-99.99,,,-99.99,,2013-02-06 22:31:00,
2013-02-06 14:41:00,55.0,41.0,-100.00,SSW,195,5.0,11.0,58,-99.99,,,-99.99,,2013-02-06 22:41:00,
2013-02-06 14:51:00,56.0,41.0,-100.00,SSW,193,5.0,11.0,57,-99.99,,,-99.99,,2013-02-06 22:51:00,
2013-02-06 15:01:00,56.0,41.0,-100.00,South,187,5.0,10.0,57,-99.99,,,-99.99,,2013-02-06 23:01:00,
2013-02-06 15:11:00,56.0,41.0,-100.00,SSW,193,8.0,11.0,56,-99.99,,,-99.99,,2013-02-06 23:11:00,
2013-02-06 15:21:00,56.0,41.0,-100.00,SW,219,6.0,14.0,56,-99.99,,,-99.99,,2013-02-06 23:21:00,
2013-02-06 15:31:00,56.0,41.0,-100.00,SW,214,6.0,14.0,56,-99.99,,,-99.99,,2013-02-06 23:31:00,
2013-02-06 15:41:00,56.0,41.0,-100.00,SSW,208,8.0,11.0,56,-99.99,,,-99.99,,2013-02-06 23:41:00,
2013-02-06 15:51:00,56.0,41.0,-100.00,SSW,208,5.0,10.0,56,-99.99,,,-99.99,,2013-02-06 23:51:00,
2013-02-06 16:01:00,56.0,41.0,-100.00,South,191,5.0,8.0,56,-99.99,,,-99.99,,2013-02-07 00:01:00,
2013-02-06 16:11:00,57.0,41.0,-100.00,SSW,209,5.0,9.0,55,-99.99,,,-99.99,,2013-02-07 00:11:00,
2013-02-06 16:21:00,56.0,41.0,-100.00,WSW,238,5.0,8.0,56,-99.99,,,-99.99,,2013-02-07 00:21:00,
2013-02-06 16:31:00,55.0,40.0,-100.00,SW,233,6.0,11.0,57,-99.99,,,-99.99,,2013-02-07 00:31:00,
2013-02-06 16:41:00,55.0,41.0,-100.00,SW,218,5.0,8.0,58,-99.99,,,-99.99,,2013-02-07 00:41:00,
2013-02-06 16:51:00,54.0,40.0,-100.00,SW,230,6.0,8.0,60,-99.99,,,-99.99,,2013-02-07 00:51:00,
2013-02-06 17:01:00,54.0,41.0,-100.00,SW,217,3.0,7.0,62,-99.99,,,-99.99,,2013-02-07 01:01:00,
2013-02-06 17:11:00,53.0,41.0,-100.00,SW,233,4.0,6.0,63,-99.99,,,-99.99,,2013-02-07 01:11:00,
2013-02-06 17:21:00,53.0,41.0,-100.00,SW,230,4.0,7.0,64,-99.99,,,-99.99,,2013-02-07 01:21:00,
2013-02-06 17:31:00,52.0,41.0,-100.00,SW,220,3.0,6.0,65,-99.99,,,-99.99,,2013-02-07 01:31:00,
2013-02-06 17:41:00,52.0,41.0,-100.00,SSW,197,2.0,5.0,67,-99.99,,,-99.99,,2013-02-07 01:41:00,
2013-02-06 17:52:00,50.0,40.0,-100.00,SE,132,2.0,4.0,69,-99.99,,,-99.99,,2013-02-07 01:52:00,
2013-02-06 18:01:00,50.0,40.0,-100.00,SE,132,2.0,4.0,69,-99.99,,,-99.99,,2013-02-07 02:01:00,
2013-02-06 18:11:00,50.0,41.0,-100.00,East,87,2.0,4.0,70,-99.99,,,-99.99,,2013-02-07 02:11:00,
2013-02-06 18:21:00,48.0,39.0,-100.00,NNE,15,2.0,3.0,72,-99.99,,,-99.99,,2013-02-07 02:21:00,
2013-02-06 18:31:00,47.0,39.0,-100.00,North,355,2.0,4.0,75,-99.99,,,-99.99,,2013-02-07 02:31:00,
2013-02-06 18:41:00,47.0,39.0,-100.00,North,355,2.0,4.0,75,-99.99,,,-99.99,,2013-02-07 02:41:00,
2013-02-06 18:51:00,47.0,39.0,-100.00,North,355,2.0,4.0,75,-99.99,,,-99.99,,2013-02-07 02:51:00,
2013-02-06 19:01:00,45.0,39.0,-100.00,NNW,344,2.0,3.0,78,-99.99,,,-99.99,,2013-02-07 03:01:00,
2013-02-06 19:11:00,44.0,38.0,-100.00,NNW,343,1.0,2.0,78,-99.99,,,-99.99,,2013-02-07 03:11:00,
2013-02-06 19:21:00,43.0,37.0,-100.00,NNW,342,2.0,4.0,80,-99.99,,,-99.99,,2013-02-07 03:21:00,
2013-02-06 19:31:00,43.0,37.0,-100.00,North,349,1.0,3.0,80,-99.99,,,-99.99,,2013-02-07 03:31:00,
2013-02-06 19:41:00,43.0,38.0,-100.00,NNW,334,2.0,4.0,81,-99.99,,,-99.99,,2013-02-07 03:41:00,
2013-02-06 19:51:00,42.0,36.0,-100.00,North,359,2.0,4.0,80,-99.99,,,-99.99,,2013-02-07 03:51:00,
2013-02-06 20:01:00,42.0,36.0,-100.00,North,8,3.0,6.0,80,-99.99,,,-99.99,,2013-02-07 04:01:00,
2013-02-06 20:11:00,41.0,36.0,-100.00,NNW,337,2.0,4.0,81,-99.99,,,-99.99,,2013-02-07 04:11:00,
2013-02-06 20:22:00,41.0,35.0,-100.00,North,11,2.0,3.0,80,-99.99,,,-99.99,,2013-02-07 04:22:00,
2013-02-06 20:31:00,41.0,36.0,-100.00,NNW,339,1.0,3.0,82,-99.99,,,-99.99,,2013-02-07 04:31:00,
2013-02-06 20:41:00,40.0,34.0,-100.00,North,354,1.0,3.0,80,-99.99,,,-99.99,,2013-02-07 04:41:00,
2013-02-06 20:52:00,39.0,33.0,-100.00,NNW,336,1.0,2.0,80,-99.99,,,-99.99,,2013-02-07 04:52:00,
2013-02-06 21:01:00,40.0,34.0,-100.00,NNW,338,2.0,3.0,80,-99.99,,,-99.99,,2013-02-07 05:01:00,
2013-02-06 21:11:00,40.0,33.0,-100.00,NW,326,1.0,4.0,75,-99.99,,,-99.99,,2013-02-07 05:11:00,
2013-02-06 21:21:00,39.0,32.0,-100.00,North,2,1.0,2.0,75,-99.99,,,-99.99,,2013-02-07 05:21:00,
2013-02-06 21:32:00,39.0,32.0,-100.00,NW,310,1.0,4.0,76,-99.99,,,-99.99,,2013-02-07 05:32:00,
2013-02-06 21:42:00,39.0,31.0,-100.00,North,359,1.0,2.0,73,-99.99,,,-99.99,,2013-02-07 05:42:00,
2013-02-06 21:52:00,39.0,30.0,-100.00,NW,323,1.0,3.0,71,-99.99,,,-99.99,,2013-02-07 05:52:00,
2013-02-06 22:01:00,39.0,30.0,-100.00,NNW,336,1.0,2.0,71,-99.99,,,-99.99,,2013-02-07 06:01:00,
2013-02-06 22:11:00,39.0,30.0,-100.00,NE,55,1.0,3.0,70,-99.99,,,-99.99,,2013-02-07 06:11:00,
2013-02-06 22:22:00,38.0,29.0,-100.00,NNW,327,2.0,3.0,71,-99.99,,,-99.99,,2013-02-07 06:22:00,
2013-02-06 22:31:00,38.0,29.0,-100.00,North,10,1.0,4.0,69,-99.99,,,-99.99,,2013-02-07 06:31:00,
2013-02-06 22:43:00,37.0,28.0,-100.00,NNW,347,1.0,2.0,71,-99.99,,,-99.99,,2013-02-07 06:43:00,
2013-02-06 22:52:00,38.0,28.0,-100.00,North,357,1.0,3.0,68,-99.99,,,-99.99,,2013-02-07 06:52:00,
2013-02-06 23:01:00,37.0,28.0,-100.00,NNE,33,1.0,3.0,70,-99.99,,,-99.99,,2013-02-07 07:01:00,
2013-02-06 23:11:00,35.0,28.0,-100.00,NNW,344,1.0,1.0,76,-99.99,,,-99.99,,2013-02-07 07:11:00,
2013-02-06 23:21:00,34.0,28.0,-100.00,NW,326,1.0,2.0,77,-99.99,,,-99.99,,2013-02-07 07:21:00,
2013-02-06 23:31:00,36.0,27.0,-100.00,East,79,1.0,2.0,70,-99.99,,,-99.99,,2013-02-07 07:31:00,
2013-02-06 23:41:00,36.0,27.0,-100.00,East,79,1.0,2.0,70,-99.99,,,-99.99,,2013-02-07 07:41:00,
2013-02-06 23:52:00,36.0,28.0,-100.00,North,2,1.0,3.0,71,-99.99,,,-99.99,,2013-02-07 07:52:00,